Time;durP1;ratioP1;P1;durP2;ratioP2;P2;SDS_P1;SDS_P2;PMS_P1;PMS_P2;Temp;Humidity;BMP_temperature;BMP_pressure;BME280_temperature;BME280_humidity;BME280_pressure;Samples;Min_cycle;Max_cycle;Signal;HPM_P1;HPM_P2
2023/08/26 00:01:31;;;;;;;9.88;3.28;;;;;;;;;;5021311;28;25066;-71
2023/08/26 00:03:57;;;;;;;10.18;2.95;;;;;;;;;;5028738;28;25070;-71
2023/08/26 00:06:23;;;;;;;12.05;2.88;;;;;;;;;;5016748;28;25070;-71
2023/08/26 00:08:51;;;;;;;10.73;3.38;;;;;;;;;;5019322;28;25087;-71
2023/08/26 00:11:17;;;;;;;7.25;2.80;;;;;;;;;;5023511;28;25067;-72
2023/08/26 00:13:43;;;;;;;12.35;3.50;;;;;;;;;;5020074;28;25128;-72
2023/08/26 00:16:09;;;;;;;8.60;2.90;;;;;;;;;;5025450;28;25152;-72
2023/08/26 00:18:34;;;;;;;6.22;2.70;;;;;;;;;;5021660;28;25049;-72
2023/08/26 00:21:00;;;;;;;9.05;3.25;;;;;;;;;;5023043;28;25070;-70
2023/08/26 00:23:27;;;;;;;6.82;3.30;;;;;;;;;;5020423;28;25072;-71
2023/08/26 00:25:53;;;;;;;11.25;2.92;;;;;;;;;;5028407;28;25048;-70
2023/08/26 00:28:19;;;;;;;14.23;3.10;;;;;;;;;;5032209;28;25057;-70
2023/08/26 00:30:45;;;;;;;13.27;2.78;;;;;;;;;;5016577;28;25065;-72
2023/08/26 00:33:11;;;;;;;5.38;2.35;;;;;;;;;;5020934;28;25121;-71
2023/08/26 00:35:39;;;;;;;9.35;2.83;;;;;;;;;;5020412;28;25069;-72
2023/08/26 00:38:05;;;;;;;6.10;2.35;;;;;;;;;;5026582;28;25100;-73
2023/08/26 00:40:35;;;;;;;5.97;2.88;;;;;;;;;;5018011;28;25105;-72
2023/08/26 00:43:07;;;;;;;7.75;2.35;;;;;;;;;;5024474;28;25109;-71
2023/08/26 00:45:33;;;;;;;12.57;2.67;;;;;;;;;;5023618;28;25069;-72
2023/08/26 00:47:59;;;;;;;7.20;2.20;;;;;;;;;;5020035;28;25051;-72
2023/08/26 00:50:25;;;;;;;6.15;2.72;;;;;;;;;;5016498;28;25071;-72
2023/08/26 00:52:52;;;;;;;9.73;3.25;;;;;;;;;;5029401;28;25059;-72
2023/08/26 00:55:19;;;;;;;7.55;2.83;;;;;;;;;;5021396;28;25054;-71
2023/08/26 00:57:45;;;;;;;13.40;3.65;;;;;;;;;;5019640;28;25152;-71
2023/08/26 01:00:11;;;;;;;9.98;2.85;;;;;;;;;;5023865;28;25052;-72
2023/08/26 01:02:37;;;;;;;6.13;2.72;;;;;;;;;;5023267;28;25127;-73
2023/08/26 01:05:05;;;;;;;8.63;2.90;;;;;;;;;;5025603;28;25091;-72
2023/08/26 01:07:31;;;;;;;9.00;4.05;;;;;;;;;;5020965;28;25052;-72
2023/08/26 01:09:57;;;;;;;9.43;3.65;;;;;;;;;;5016587;28;25254;-72
2023/08/26 01:12:29;;;;;;;6.68;3.15;;;;;;;;;;5014132;28;25054;-71
2023/08/26 01:15:10;;;;;;;7.30;2.95;;;;;;;;;;5016718;28;25134;-72
2023/08/26 01:17:36;;;;;;;10.10;3.50;;;;;;;;;;5019412;28;25087;-72
2023/08/26 01:20:03;;;;;;;9.38;3.60;;;;;;;;;;5020230;28;25069;-71
2023/08/26 01:22:30;;;;;;;12.20;3.50;;;;;;;;;;5023361;28;25131;-72
2023/08/26 01:24:56;;;;;;;12.43;3.45;;;;;;;;;;5018725;28;25088;-72
2023/08/26 01:27:22;;;;;;;12.40;3.90;;;;;;;;;;5026976;28;25066;-71
2023/08/26 01:29:48;;;;;;;8.27;3.60;;;;;;;;;;5023258;28;25060;-71
2023/08/26 01:32:30;;;;;;;11.30;3.50;;;;;;;;;;5023757;28;25067;-72
2023/08/26 01:34:57;;;;;;;8.60;3.58;;;;;;;;;;5024105;28;25080;-71
2023/08/26 01:37:24;;;;;;;7.43;3.15;;;;;;;;;;5022020;28;25055;-72
2023/08/26 01:39:51;;;;;;;10.35;3.20;;;;;;;;;;5023825;28;25131;-72
2023/08/26 01:42:21;;;;;;;11.27;3.55;;;;;;;;;;5020962;28;25128;-71
2023/08/26 01:44:47;;;;;;;8.70;3.42;;;;;;;;;;5017962;28;25050;-71
2023/08/26 01:47:13;;;;;;;6.88;3.40;;;;;;;;;;5020482;28;25132;-73
2023/08/26 01:49:39;;;;;;;7.63;3.42;;;;;;;;;;5028314;28;25104;-71
2023/08/26 01:52:05;;;;;;;10.88;3.80;;;;;;;;;;5020835;28;25089;-72
2023/08/26 01:54:31;;;;;;;12.23;3.40;;;;;;;;;;5017021;28;25089;-71
2023/08/26 01:56:57;;;;;;;7.53;3.72;;;;;;;;;;5026373;28;25067;-71
2023/08/26 01:59:23;;;;;;;9.68;3.42;;;;;;;;;;5025618;28;25072;-71
2023/08/26 02:01:49;;;;;;;4.88;2.92;;;;;;;;;;5021478;28;25123;-74
2023/08/26 02:04:15;;;;;;;6.75;3.05;;;;;;;;;;5022665;28;25117;-72
2023/08/26 02:06:42;;;;;;;8.13;3.55;;;;;;;;;;5022764;28;25063;-71
2023/08/26 02:09:08;;;;;;;7.55;3.47;;;;;;;;;;5017658;28;25068;-72
2023/08/26 02:11:34;;;;;;;14.05;3.85;;;;;;;;;;5021617;28;25128;-72
2023/08/26 02:14:00;;;;;;;9.70;3.58;;;;;;;;;;5025389;28;25081;-71
2023/08/26 02:16:26;;;;;;;7.38;2.97;;;;;;;;;;5019824;28;25101;-71
2023/08/26 02:18:53;;;;;;;10.63;3.20;;;;;;;;;;5031424;28;25074;-72
2023/08/26 02:21:19;;;;;;;8.30;3.20;;;;;;;;;;5028282;28;25126;-71
2023/08/26 02:23:45;;;;;;;10.05;3.15;;;;;;;;;;5025281;28;25066;-71
2023/08/26 02:26:11;;;;;;;10.57;2.97;;;;;;;;;;5022950;28;25052;-71
2023/08/26 02:28:37;;;;;;;15.60;3.08;;;;;;;;;;5034580;28;25144;-73
2023/08/26 02:31:03;;;;;;;7.43;3.00;;;;;;;;;;5027370;28;25055;-70
2023/08/26 02:33:29;;;;;;;9.00;3.20;;;;;;;;;;5032641;28;25082;-71
2023/08/26 02:35:55;;;;;;;7.82;2.97;;;;;;;;;;5032475;28;25136;-71
2023/08/26 02:38:21;;;;;;;7.47;3.30;;;;;;;;;;5030156;28;25074;-72
2023/08/26 02:40:54;;;;;;;13.65;3.70;;;;;;;;;;5025358;28;25055;-71
2023/08/26 02:43:21;;;;;;;13.10;3.47;;;;;;;;;;5020345;28;25058;-72
2023/08/26 02:45:51;;;;;;;7.25;3.28;;;;;;;;;;5024295;28;25053;-72
2023/08/26 02:48:17;;;;;;;3.38;2.88;;;;;;;;;;5026803;28;25073;-71
2023/08/26 02:50:43;;;;;;;8.55;2.95;;;;;;;;;;5039988;28;25054;-73
2023/08/26 02:53:09;;;;;;;12.10;3.90;;;;;;;;;;5024629;28;25070;-72
2023/08/26 02:55:35;;;;;;;10.43;3.70;;;;;;;;;;5025866;28;25086;-73
2023/08/26 02:58:01;;;;;;;13.10;4.35;;;;;;;;;;5027103;28;25079;-72
2023/08/26 03:00:27;;;;;;;6.22;3.38;;;;;;;;;;5027343;28;25086;-72
2023/08/26 03:02:53;;;;;;;15.60;3.50;;;;;;;;;;5029840;28;25050;-71
2023/08/26 03:05:19;;;;;;;12.52;3.22;;;;;;;;;;5030489;28;25142;-72
2023/08/26 03:07:45;;;;;;;12.25;4.03;;;;;;;;;;5023283;28;25076;-71
2023/08/26 03:10:11;;;;;;;14.27;4.20;;;;;;;;;;5031484;28;25089;-73
2023/08/26 03:12:37;;;;;;;8.25;3.30;;;;;;;;;;5028028;28;25071;-73
2023/08/26 03:15:03;;;;;;;14.35;4.50;;;;;;;;;;5035704;28;25061;-72
2023/08/26 03:17:29;;;;;;;13.15;3.90;;;;;;;;;;5020974;28;25088;-71
2023/08/26 03:19:55;;;;;;;10.18;4.18;;;;;;;;;;5029261;28;25102;-69
2023/08/26 03:22:21;;;;;;;8.02;3.80;;;;;;;;;;5012956;28;25068;-71
2023/08/26 03:24:47;;;;;;;8.93;4.22;;;;;;;;;;5013930;28;25133;-70
2023/08/26 03:27:13;;;;;;;8.57;3.97;;;;;;;;;;5008587;28;25064;-72
2023/08/26 03:29:39;;;;;;;8.27;3.78;;;;;;;;;;5014728;28;25094;-70
2023/08/26 03:32:06;;;;;;;8.35;3.80;;;;;;;;;;5017667;28;25134;-71
2023/08/26 03:34:32;;;;;;;13.02;5.47;;;;;;;;;;5021339;28;25063;-69
2023/08/26 03:36:58;;;;;;;8.70;3.83;;;;;;;;;;5020794;28;25135;-70
2023/08/26 03:39:24;;;;;;;7.70;3.75;;;;;;;;;;5020893;28;25063;-70
2023/08/26 03:41:50;;;;;;;12.93;4.03;;;;;;;;;;5024091;28;25068;-71
2023/08/26 03:44:16;;;;;;;11.48;3.53;;;;;;;;;;5019299;28;25064;-71
2023/08/26 03:46:43;;;;;;;14.45;3.85;;;;;;;;;;5012282;28;25075;-70
2023/08/26 03:49:09;;;;;;;10.82;3.65;;;;;;;;;;5030251;28;25090;-70
2023/08/26 03:51:35;;;;;;;9.48;3.22;;;;;;;;;;5027280;28;25122;-70
2023/08/26 03:54:00;;;;;;;7.00;3.53;;;;;;;;;;5017761;28;25065;-71
2023/08/26 03:56:27;;;;;;;9.95;4.65;;;;;;;;;;5029616;28;25080;-71
2023/08/26 03:58:56;;;;;;;7.72;3.80;;;;;;;;;;5020444;28;25068;-70
2023/08/26 04:01:22;;;;;;;5.78;3.30;;;;;;;;;;5028035;28;25108;-70
2023/08/26 04:03:51;;;;;;;9.88;4.05;;;;;;;;;;5014147;28;25081;-70
2023/08/26 04:06:17;;;;;;;9.52;3.20;;;;;;;;;;5020436;28;25072;-69
2023/08/26 04:08:44;;;;;;;10.38;3.42;;;;;;;;;;5017804;28;25102;-71
2023/08/26 04:11:10;;;;;;;11.32;3.22;;;;;;;;;;5028885;28;25135;-70
2023/08/26 04:13:37;;;;;;;8.77;3.95;;;;;;;;;;5023402;28;25145;-71
2023/08/26 04:16:03;;;;;;;10.55;4.15;;;;;;;;;;5025923;28;25139;-70
2023/08/26 04:18:30;;;;;;;9.95;3.53;;;;;;;;;;5022246;28;25146;-69
2023/08/26 04:20:56;;;;;;;10.77;4.03;;;;;;;;;;5021075;28;25083;-71
2023/08/26 04:23:23;;;;;;;5.90;3.20;;;;;;;;;;5017831;28;25162;-71
2023/08/26 04:25:52;;;;;;;10.77;3.88;;;;;;;;;;5025451;28;25100;-70
2023/08/26 04:28:18;;;;;;;11.20;3.90;;;;;;;;;;5022861;28;25063;-71
2023/08/26 04:30:47;;;;;;;9.32;3.78;;;;;;;;;;5034477;28;25093;-71
2023/08/26 04:33:13;;;;;;;8.57;3.80;;;;;;;;;;5028862;28;25074;-70
2023/08/26 04:35:39;;;;;;;10.68;3.78;;;;;;;;;;5024068;28;25091;-70
2023/08/26 04:38:05;;;;;;;6.53;3.78;;;;;;;;;;5029932;28;25078;-70
2023/08/26 04:40:31;;;;;;;17.27;4.43;;;;;;;;;;5023186;28;25145;-70
2023/08/26 04:42:57;;;;;;;10.57;3.97;;;;;;;;;;5025083;28;25202;-72
2023/08/26 04:45:23;;;;;;;11.95;4.80;;;;;;;;;;5018508;28;25127;-72
2023/08/26 04:47:49;;;;;;;12.93;4.65;;;;;;;;;;5019681;28;25061;-72
2023/08/26 04:50:15;;;;;;;8.02;3.95;;;;;;;;;;5017892;28;25064;-73
2023/08/26 04:52:42;;;;;;;9.85;4.47;;;;;;;;;;5021057;28;25069;-70
2023/08/26 04:55:09;;;;;;;8.02;3.75;;;;;;;;;;5022346;28;25055;-70
2023/08/26 04:57:35;;;;;;;7.15;3.88;;;;;;;;;;5022397;28;25132;-72
2023/08/26 05:00:01;;;;;;;8.00;4.22;;;;;;;;;;5020466;28;25071;-71
2023/08/26 05:02:27;;;;;;;9.75;3.78;;;;;;;;;;5015228;28;25088;-70
2023/08/26 05:04:53;;;;;;;8.20;3.72;;;;;;;;;;5021590;28;25073;-70
2023/08/26 05:07:20;;;;;;;11.68;4.70;;;;;;;;;;5018560;28;25163;-70
2023/08/26 05:09:46;;;;;;;16.80;4.65;;;;;;;;;;5022537;28;24996;-70
2023/08/26 05:12:12;;;;;;;7.65;4.80;;;;;;;;;;5017953;28;25082;-70
2023/08/26 05:14:38;;;;;;;8.82;3.90;;;;;;;;;;5018832;28;25068;-70
2023/08/26 05:17:04;;;;;;;10.55;3.55;;;;;;;;;;5024535;28;25081;-70
2023/08/26 05:19:30;;;;;;;9.05;3.40;;;;;;;;;;5015397;28;25064;-71
2023/08/26 05:21:57;;;;;;;7.03;3.70;;;;;;;;;;5009346;28;25075;-69
2023/08/26 05:24:23;;;;;;;8.38;3.63;;;;;;;;;;5021170;28;25093;-70
2023/08/26 05:26:49;;;;;;;10.15;4.07;;;;;;;;;;5027641;28;25064;-72
2023/08/26 05:29:15;;;;;;;8.00;3.58;;;;;;;;;;5016197;28;25093;-72
2023/08/26 05:31:41;;;;;;;11.00;3.85;;;;;;;;;;5023748;28;25409;-70
2023/08/26 05:34:07;;;;;;;10.48;4.38;;;;;;;;;;5018774;28;25076;-70
2023/08/26 05:36:33;;;;;;;7.53;3.45;;;;;;;;;;5012628;28;25067;-70
2023/08/26 05:38:59;;;;;;;9.82;4.13;;;;;;;;;;5019425;28;25126;-70
2023/08/26 05:41:26;;;;;;;12.02;4.38;;;;;;;;;;5022776;28;25139;-70
2023/08/26 05:43:52;;;;;;;11.75;4.03;;;;;;;;;;5032138;28;25047;-71
2023/08/26 05:46:18;;;;;;;9.98;3.60;;;;;;;;;;5027349;28;25068;-70
2023/08/26 05:48:44;;;;;;;10.10;4.30;;;;;;;;;;5022841;28;25061;-70
2023/08/26 05:51:10;;;;;;;8.65;3.80;;;;;;;;;;5021478;28;25154;-70
2023/08/26 05:53:37;;;;;;;6.63;3.17;;;;;;;;;;5020434;28;25094;-70
2023/08/26 05:56:03;;;;;;;5.68;2.75;;;;;;;;;;5023274;28;25042;-69
2023/08/26 05:58:29;;;;;;;12.02;3.47;;;;;;;;;;5015648;28;25059;-72
2023/08/26 06:00:55;;;;;;;11.50;3.33;;;;;;;;;;5020006;28;25149;-71
2023/08/26 06:03:21;;;;;;;6.13;3.63;;;;;;;;;;5013142;28;25073;-70
2023/08/26 06:05:47;;;;;;;8.80;3.60;;;;;;;;;;5032688;28;25140;-70
2023/08/26 06:08:13;;;;;;;6.55;3.38;;;;;;;;;;5021775;28;25083;-71
2023/08/26 06:10:39;;;;;;;7.43;3.45;;;;;;;;;;5028865;28;25070;-71
2023/08/26 06:13:05;;;;;;;6.70;3.42;;;;;;;;;;5022002;28;25156;-70
2023/08/26 06:15:31;;;;;;;11.13;3.35;;;;;;;;;;5020107;28;25061;-70
2023/08/26 06:17:59;;;;;;;7.30;2.97;;;;;;;;;;5014706;28;25121;-71
2023/08/26 06:20:25;;;;;;;10.43;3.58;;;;;;;;;;5026892;28;25062;-70
2023/08/26 06:22:51;;;;;;;6.90;3.95;;;;;;;;;;5020289;28;25056;-70
2023/08/26 06:25:17;;;;;;;11.07;3.78;;;;;;;;;;5017405;28;24975;-70
2023/08/26 06:27:43;;;;;;;7.75;3.30;;;;;;;;;;5016318;28;25131;-69
2023/08/26 06:30:10;;;;;;;7.53;3.45;;;;;;;;;;5018046;28;25054;-71
2023/08/26 06:32:36;;;;;;;8.10;2.92;;;;;;;;;;5021076;28;25098;-71
2023/08/26 06:35:04;;;;;;;12.85;3.75;;;;;;;;;;5022387;28;25127;-72
2023/08/26 06:37:30;;;;;;;5.88;2.90;;;;;;;;;;5016455;28;25101;-70
2023/08/26 06:39:56;;;;;;;9.52;3.83;;;;;;;;;;5012604;28;25139;-71
2023/08/26 06:42:22;;;;;;;11.23;4.65;;;;;;;;;;5014939;28;25048;-70
2023/08/26 06:44:48;;;;;;;7.63;4.45;;;;;;;;;;5011009;28;25062;-70
2023/08/26 06:47:14;;;;;;;13.75;4.03;;;;;;;;;;5013802;28;25076;-72
2023/08/26 06:49:40;;;;;;;13.93;4.43;;;;;;;;;;5017824;28;25143;-70
2023/08/26 06:52:06;;;;;;;11.98;5.43;;;;;;;;;;5015680;28;25116;-71
2023/08/26 06:54:33;;;;;;;13.55;4.63;;;;;;;;;;5012587;28;25237;-71
2023/08/26 06:56:59;;;;;;;11.10;5.18;;;;;;;;;;5018128;28;25149;-70
2023/08/26 06:59:25;;;;;;;6.53;3.72;;;;;;;;;;5010867;28;25065;-69
2023/08/26 07:01:51;;;;;;;9.95;3.95;;;;;;;;;;5011752;28;25072;-71
2023/08/26 07:04:17;;;;;;;7.90;3.90;;;;;;;;;;5013803;28;25058;-70
2023/08/26 07:06:43;;;;;;;10.00;3.20;;;;;;;;;;5014479;28;25146;-70
2023/08/26 07:09:10;;;;;;;8.23;4.40;;;;;;;;;;5012171;28;25067;-69
2023/08/26 07:11:36;;;;;;;11.10;3.50;;;;;;;;;;5019085;28;25162;-71
2023/08/26 07:14:02;;;;;;;5.45;3.33;;;;;;;;;;5020014;28;25099;-72
2023/08/26 07:16:29;;;;;;;5.60;3.30;;;;;;;;;;5019425;28;25126;-74
2023/08/26 07:18:55;;;;;;;6.18;3.15;;;;;;;;;;5015780;28;25071;-71
2023/08/26 07:21:21;;;;;;;5.60;3.70;;;;;;;;;;5014308;28;25074;-71
2023/08/26 07:23:47;;;;;;;9.20;4.30;;;;;;;;;;5016985;28;25064;-72
2023/08/26 07:26:13;;;;;;;5.40;3.40;;;;;;;;;;5012691;28;25127;-71
2023/08/26 07:28:39;;;;;;;9.63;3.78;;;;;;;;;;5018814;28;25069;-70
2023/08/26 07:31:06;;;;;;;3.88;2.83;;;;;;;;;;5012034;28;25073;-69
2023/08/26 07:33:32;;;;;;;5.90;2.58;;;;;;;;;;5017528;28;25065;-70
2023/08/26 07:36:16;;;;;;;4.18;3.10;;;;;;;;;;5018278;28;25065;-70
2023/08/26 07:38:42;;;;;;;8.35;2.90;;;;;;;;;;5016708;28;25073;-69
2023/08/26 07:41:08;;;;;;;5.68;3.40;;;;;;;;;;5018081;28;25075;-70
2023/08/26 07:43:37;;;;;;;5.63;3.90;;;;;;;;;;5019840;28;25072;-71
2023/08/26 07:46:03;;;;;;;6.00;4.05;;;;;;;;;;5018515;28;25082;-70
2023/08/26 07:48:29;;;;;;;9.40;5.78;;;;;;;;;;5009849;28;25065;-71
2023/08/26 07:50:55;;;;;;;8.93;6.68;;;;;;;;;;5032155;28;25090;-70
2023/08/26 07:53:21;;;;;;;8.82;7.50;;;;;;;;;;5015932;28;25065;-70
2023/08/26 07:55:47;;;;;;;9.77;6.93;;;;;;;;;;5022487;28;25046;-70
2023/08/26 07:58:13;;;;;;;11.23;7.47;;;;;;;;;;5018665;28;25125;-72
2023/08/26 08:00:39;;;;;;;10.20;7.03;;;;;;;;;;5022331;28;25073;-70
2023/08/26 08:03:05;;;;;;;7.93;6.53;;;;;;;;;;5019294;28;25143;-70
2023/08/26 08:05:31;;;;;;;7.53;6.68;;;;;;;;;;5041662;28;25105;-70
2023/08/26 08:07:57;;;;;;;6.55;5.45;;;;;;;;;;5021134;28;25060;-69
2023/08/26 08:10:23;;;;;;;7.25;5.80;;;;;;;;;;5019393;28;25137;-70
2023/08/26 08:12:49;;;;;;;9.77;6.68;;;;;;;;;;5026939;28;25076;-69
2023/08/26 08:15:15;;;;;;;5.43;4.93;;;;;;;;;;5020873;28;25127;-71
2023/08/26 08:17:41;;;;;;;5.95;5.35;;;;;;;;;;5025502;28;25150;-71
2023/08/26 08:20:07;;;;;;;6.90;4.60;;;;;;;;;;5031546;28;25098;-70
2023/08/26 08:22:38;;;;;;;8.70;5.07;;;;;;;;;;5013323;28;25069;-70
2023/08/26 08:25:05;;;;;;;5.72;3.92;;;;;;;;;;5016539;28;25107;-70
2023/08/26 08:27:31;;;;;;;5.65;4.05;;;;;;;;;;5014787;28;25091;-70
2023/08/26 08:29:57;;;;;;;5.32;3.67;;;;;;;;;;5020351;28;25066;-70
2023/08/26 08:32:23;;;;;;;5.57;3.63;;;;;;;;;;5019592;28;25082;-70
2023/08/26 08:34:49;;;;;;;6.70;3.83;;;;;;;;;;5020602;28;25104;-70
2023/08/26 08:37:16;;;;;;;5.68;2.97;;;;;;;;;;5024282;28;25053;-71
2023/08/26 08:39:41;;;;;;;5.53;3.22;;;;;;;;;;5026474;28;25135;-71
2023/08/26 08:42:09;;;;;;;4.63;3.15;;;;;;;;;;5020842;28;25067;-71
2023/08/26 08:44:41;;;;;;;3.70;2.60;;;;;;;;;;5030766;28;25109;-71
2023/08/26 08:47:07;;;;;;;3.35;2.72;;;;;;;;;;5020209;28;25052;-69
2023/08/26 08:49:33;;;;;;;3.65;2.10;;;;;;;;;;5024865;28;25071;-70
2023/08/26 08:52:00;;;;;;;3.03;2.08;;;;;;;;;;5019076;28;25072;-71
2023/08/26 08:54:26;;;;;;;5.18;2.22;;;;;;;;;;5018272;28;25064;-70
2023/08/26 08:56:53;;;;;;;3.35;1.73;;;;;;;;;;5027973;28;25098;-71
2023/08/26 08:59:19;;;;;;;2.70;1.90;;;;;;;;;;5017345;28;25202;-71
2023/08/26 09:01:46;;;;;;;5.32;1.67;;;;;;;;;;5023266;28;25132;-70
2023/08/26 09:04:12;;;;;;;2.00;1.90;;;;;;;;;;5017247;28;25120;-69
2023/08/26 09:06:38;;;;;;;3.35;1.65;;;;;;;;;;5021303;28;25052;-69
2023/08/26 09:09:10;;;;;;;4.70;1.75;;;;;;;;;;5017719;28;25091;-70
2023/08/26 09:11:36;;;;;;;3.65;1.95;;;;;;;;;;5019722;28;25046;-70
2023/08/26 09:14:02;;;;;;;3.33;2.35;;;;;;;;;;5017588;28;25065;-70
2023/08/26 09:16:29;;;;;;;2.72;1.60;;;;;;;;;;5023458;28;25147;-70
2023/08/26 09:18:57;;;;;;;4.93;1.75;;;;;;;;;;5021973;28;25109;-72
2023/08/26 09:21:23;;;;;;;5.72;2.05;;;;;;;;;;5021636;28;25095;-70
2023/08/26 09:23:50;;;;;;;3.58;2.08;;;;;;;;;;5019394;28;25042;-71
2023/08/26 09:26:16;;;;;;;2.42;1.30;;;;;;;;;;5014243;28;25054;-70
2023/08/26 09:28:50;;;;;;;5.10;1.48;;;;;;;;;;5019840;28;25073;-70
2023/08/26 09:31:16;;;;;;;8.20;1.63;;;;;;;;;;5019238;28;25112;-70
2023/08/26 09:33:42;;;;;;;3.08;1.75;;;;;;;;;;5026413;28;25052;-70
2023/08/26 09:36:09;;;;;;;5.57;1.70;;;;;;;;;;5021412;28;25103;-71
2023/08/26 09:38:47;;;;;;;9.70;1.58;;;;;;;;;;5019765;28;25052;-69
2023/08/26 09:41:19;;;;;;;6.90;1.80;;;;;;;;;;5026961;28;25048;-71
2023/08/26 09:43:45;;;;;;;5.53;2.05;;;;;;;;;;5013831;28;25133;-69
2023/08/26 09:46:17;;;;;;;11.23;2.15;;;;;;;;;;5019456;28;25138;-70
2023/08/26 09:48:44;;;;;;;4.32;1.77;;;;;;;;;;5011056;28;25073;-69
2023/08/26 09:51:10;;;;;;;3.80;1.95;;;;;;;;;;5023399;28;25069;-69
2023/08/26 09:53:37;;;;;;;3.80;1.40;;;;;;;;;;5024200;28;25132;-70
2023/08/26 09:56:03;;;;;;;3.42;1.40;;;;;;;;;;5017020;28;25064;-70
2023/08/26 09:58:29;;;;;;;5.40;1.80;;;;;;;;;;5021014;28;25063;-70
2023/08/26 10:00:55;;;;;;;4.72;1.73;;;;;;;;;;5023230;28;25064;-69
2023/08/26 10:03:25;;;;;;;5.75;2.22;;;;;;;;;;5021955;28;25106;-70
2023/08/26 10:05:52;;;;;;;4.68;1.83;;;;;;;;;;5020038;28;25147;-70
2023/08/26 10:08:19;;;;;;;3.22;1.85;;;;;;;;;;5014164;28;25075;-71
2023/08/26 10:10:48;;;;;;;4.43;1.33;;;;;;;;;;5021079;28;25258;-70
2023/08/26 10:13:16;;;;;;;1.55;1.00;;;;;;;;;;5012116;28;25048;-70
2023/08/26 10:15:43;;;;;;;3.35;1.35;;;;;;;;;;5007846;28;25067;-70
2023/08/26 10:18:09;;;;;;;7.78;1.55;;;;;;;;;;5024279;28;25074;-70
2023/08/26 10:20:36;;;;;;;2.15;1.55;;;;;;;;;;5017679;28;25078;-70
2023/08/26 10:23:02;;;;;;;4.10;1.75;;;;;;;;;;5020818;28;25064;-68
2023/08/26 10:25:30;;;;;;;3.53;1.52;;;;;;;;;;5019708;28;25050;-70
2023/08/26 10:27:56;;;;;;;9.20;2.40;;;;;;;;;;5027001;28;25095;-69
2023/08/26 10:30:23;;;;;;;2.47;1.10;;;;;;;;;;5023840;28;25074;-70
2023/08/26 10:32:58;;;;;;;6.03;1.52;;;;;;;;;;5024634;28;25067;-71
2023/08/26 10:35:25;;;;;;;4.32;1.40;;;;;;;;;;5030312;28;25072;-70
2023/08/26 10:37:51;;;;;;;2.38;1.73;;;;;;;;;;5022018;28;25120;-71
2023/08/26 10:40:17;;;;;;;3.60;1.85;;;;;;;;;;5020498;28;25143;-70
2023/08/26 10:43:02;;;;;;;2.28;1.73;;;;;;;;;;5031556;28;25067;-69
2023/08/26 10:45:28;;;;;;;3.42;2.13;;;;;;;;;;5020947;28;25090;-70
2023/08/26 10:47:55;;;;;;;2.88;1.60;;;;;;;;;;5025962;28;25103;-70
2023/08/26 10:50:25;;;;;;;2.95;1.85;;;;;;;;;;5023339;28;25429;-69
2023/08/26 10:52:54;;;;;;;3.92;1.45;;;;;;;;;;5027494;28;25138;-71
2023/08/26 10:55:25;;;;;;;3.55;1.23;;;;;;;;;;5023154;28;25071;-71
2023/08/26 10:58:12;;;;;;;3.38;1.13;;;;;;;;;;5025683;28;25083;-70
2023/08/26 11:00:39;;;;;;;3.58;1.00;;;;;;;;;;5017213;28;25130;-70
2023/08/26 11:03:09;;;;;;;5.50;1.20;;;;;;;;;;5021742;28;25097;-71
2023/08/26 11:05:36;;;;;;;3.60;1.08;;;;;;;;;;5022404;28;25054;-71
2023/08/26 11:08:03;;;;;;;1.27;1.08;;;;;;;;;;5020543;28;25095;-71
2023/08/26 11:10:29;;;;;;;3.38;1.40;;;;;;;;;;5030594;28;25067;-71
2023/08/26 11:12:55;;;;;;;4.25;1.10;;;;;;;;;;5023604;28;25057;-70
2023/08/26 11:15:21;;;;;;;3.30;1.33;;;;;;;;;;5017456;28;25054;-71
2023/08/26 11:17:50;;;;;;;7.05;2.10;;;;;;;;;;5012915;28;25050;-71
2023/08/26 11:20:17;;;;;;;2.72;1.30;;;;;;;;;;5020144;28;25113;-70
2023/08/26 11:22:43;;;;;;;2.80;1.40;;;;;;;;;;5017070;28;24796;-72
2023/08/26 11:25:13;;;;;;;3.30;1.50;;;;;;;;;;5016008;28;25068;-71
2023/08/26 11:27:39;;;;;;;6.10;1.13;;;;;;;;;;5021971;28;25100;-70
2023/08/26 11:30:08;;;;;;;4.65;1.40;;;;;;;;;;5024715;28;25089;-70
2023/08/26 11:32:38;;;;;;;2.65;1.10;;;;;;;;;;5016076;28;25098;-69
2023/08/26 11:35:04;;;;;;;2.95;1.55;;;;;;;;;;5020080;28;25077;-70
2023/08/26 11:37:43;;;;;;;2.25;1.02;;;;;;;;;;5016913;28;25056;-70
2023/08/26 11:40:13;;;;;;;2.60;0.90;;;;;;;;;;5011300;28;25068;-71
2023/08/26 11:42:39;;;;;;;3.97;1.40;;;;;;;;;;5021027;28;25055;-71
2023/08/26 11:45:12;;;;;;;3.35;1.75;;;;;;;;;;5022309;28;25164;-70
2023/08/26 11:47:38;;;;;;;3.15;1.10;;;;;;;;;;5016780;28;25049;-70
2023/08/26 11:50:04;;;;;;;3.13;1.50;;;;;;;;;;5020162;28;25066;-70
2023/08/26 11:52:34;;;;;;;8.13;1.70;;;;;;;;;;5022845;28;25157;-69
2023/08/26 11:55:00;;;;;;;1.75;1.27;;;;;;;;;;5018882;28;25128;-69
2023/08/26 11:57:26;;;;;;;3.53;1.48;;;;;;;;;;5009406;28;25123;-69
2023/08/26 11:59:53;;;;;;;6.00;1.73;;;;;;;;;;5019090;28;25106;-71
2023/08/26 12:02:21;;;;;;;4.43;1.58;;;;;;;;;;5016624;28;25075;-70
2023/08/26 12:04:47;;;;;;;5.07;1.83;;;;;;;;;;5021477;28;25122;-71
2023/08/26 12:07:13;;;;;;;5.85;1.80;;;;;;;;;;5013397;28;25096;-70
2023/08/26 12:09:39;;;;;;;4.00;1.30;;;;;;;;;;5024103;28;25082;-70
2023/08/26 12:12:06;;;;;;;3.20;1.20;;;;;;;;;;5012461;28;25075;-70
2023/08/26 12:14:34;;;;;;;1.90;1.30;;;;;;;;;;5018779;28;25059;-70
2023/08/26 12:17:02;;;;;;;4.57;1.35;;;;;;;;;;5008648;28;25069;-70
2023/08/26 12:19:31;;;;;;;2.22;1.23;;;;;;;;;;5013359;28;25058;-70
2023/08/26 12:21:58;;;;;;;3.33;1.05;;;;;;;;;;5023292;28;25046;-70
2023/08/26 12:24:25;;;;;;;1.48;0.93;;;;;;;;;;5016672;28;25107;-70
2023/08/26 12:26:51;;;;;;;3.33;1.30;;;;;;;;;;5022251;28;25111;-70
2023/08/26 12:29:17;;;;;;;4.30;1.05;;;;;;;;;;5023367;28;25083;-70
2023/08/26 12:31:44;;;;;;;3.47;1.38;;;;;;;;;;5016490;28;25077;-70
2023/08/26 12:34:10;;;;;;;3.95;1.52;;;;;;;;;;5019211;28;25051;-71
2023/08/26 12:36:36;;;;;;;5.93;1.60;;;;;;;;;;5019146;28;25108;-71
2023/08/26 12:39:03;;;;;;;3.78;1.30;;;;;;;;;;5011850;28;25058;-69
2023/08/26 12:41:29;;;;;;;3.08;1.20;;;;;;;;;;5016641;28;25135;-70
2023/08/26 12:43:55;;;;;;;1.45;1.02;;;;;;;;;;5017222;28;25136;-73
2023/08/26 12:46:24;;;;;;;1.38;1.00;;;;;;;;;;5027534;28;25064;-70
2023/08/26 12:48:50;;;;;;;3.25;1.40;;;;;;;;;;5027060;28;25105;-71
2023/08/26 12:51:16;;;;;;;10.85;3.25;;;;;;;;;;5020170;28;25128;-72
2023/08/26 12:53:43;;;;;;;5.07;2.30;;;;;;;;;;5008794;28;25104;-70
2023/08/26 12:56:09;;;;;;;5.72;2.22;;;;;;;;;;5020386;28;25096;-71
2023/08/26 12:58:35;;;;;;;3.50;2.10;;;;;;;;;;5020398;28;25147;-69
2023/08/26 13:01:02;;;;;;;2.53;2.00;;;;;;;;;;5012274;28;25076;-70
2023/08/26 13:03:28;;;;;;;3.92;1.95;;;;;;;;;;5001310;28;25097;-69
2023/08/26 13:05:57;;;;;;;4.95;2.08;;;;;;;;;;5008297;28;25093;-69
2023/08/26 13:08:23;;;;;;;3.47;2.45;;;;;;;;;;5012539;28;25060;-70
2023/08/26 13:10:53;;;;;;;4.65;2.60;;;;;;;;;;5009662;28;25103;-70
2023/08/26 13:13:19;;;;;;;10.70;2.67;;;;;;;;;;5023158;28;25081;-71
2023/08/26 13:15:45;;;;;;;7.65;2.72;;;;;;;;;;5023552;28;25127;-70
2023/08/26 13:18:11;;;;;;;8.63;3.28;;;;;;;;;;5007741;28;25108;-70
2023/08/26 13:20:41;;;;;;;4.28;2.92;;;;;;;;;;5002800;28;25140;-70
2023/08/26 13:23:09;;;;;;;5.40;2.65;;;;;;;;;;5016056;28;25051;-70
2023/08/26 13:25:35;;;;;;;3.92;2.63;;;;;;;;;;5013185;28;25106;-70
2023/08/26 13:28:01;;;;;;;4.50;2.20;;;;;;;;;;5009221;28;25115;-70
2023/08/26 13:30:27;;;;;;;4.38;2.30;;;;;;;;;;5014403;28;25142;-71
2023/08/26 13:32:53;;;;;;;6.10;2.38;;;;;;;;;;5016468;28;25140;-69
2023/08/26 13:35:19;;;;;;;5.07;2.38;;;;;;;;;;5019554;28;25053;-70
2023/08/26 13:37:45;;;;;;;5.47;2.28;;;;;;;;;;5011569;28;25056;-70
2023/08/26 13:40:11;;;;;;;3.67;2.47;;;;;;;;;;5019241;28;25057;-69
2023/08/26 13:42:37;;;;;;;7.13;3.00;;;;;;;;;;5018027;28;25078;-70
2023/08/26 13:45:03;;;;;;;4.85;2.20;;;;;;;;;;5012524;28;25069;-70
2023/08/26 13:47:29;;;;;;;7.93;2.70;;;;;;;;;;5015850;28;25096;-71
2023/08/26 13:49:55;;;;;;;6.85;2.90;;;;;;;;;;5020091;28;25292;-71
2023/08/26 13:52:21;;;;;;;5.20;2.63;;;;;;;;;;5022891;28;25113;-71
2023/08/26 13:54:47;;;;;;;5.05;3.30;;;;;;;;;;5012245;28;25121;-70
2023/08/26 13:57:13;;;;;;;5.03;2.88;;;;;;;;;;5011856;28;25170;-69
2023/08/26 13:59:39;;;;;;;4.78;3.00;;;;;;;;;;5016104;28;25099;-71
2023/08/26 14:02:06;;;;;;;8.15;3.17;;;;;;;;;;5012149;28;25086;-70
2023/08/26 14:04:32;;;;;;;4.18;3.15;;;;;;;;;;5023270;28;25093;-71
2023/08/26 14:06:58;;;;;;;6.97;2.70;;;;;;;;;;5012080;28;25099;-70
2023/08/26 14:09:25;;;;;;;7.05;2.75;;;;;;;;;;5002554;28;25090;-70
2023/08/26 14:11:51;;;;;;;11.02;3.42;;;;;;;;;;5019940;28;25099;-70
2023/08/26 14:14:17;;;;;;;4.28;2.50;;;;;;;;;;5021938;28;25071;-69
2023/08/26 14:16:43;;;;;;;6.93;2.53;;;;;;;;;;5023802;28;25143;-71
2023/08/26 14:19:09;;;;;;;5.80;2.33;;;;;;;;;;5023491;28;25094;-69
2023/08/26 14:21:36;;;;;;;2.95;2.08;;;;;;;;;;5010057;28;25085;-70
2023/08/26 14:24:03;;;;;;;4.30;1.90;;;;;;;;;;5015284;28;25166;-70
2023/08/26 14:26:29;;;;;;;3.60;1.45;;;;;;;;;;5019771;28;25057;-70
2023/08/26 14:28:55;;;;;;;2.33;1.38;;;;;;;;;;5011720;28;25048;-70
2023/08/26 14:31:21;;;;;;;4.60;1.80;;;;;;;;;;4997940;28;25049;-70
2023/08/26 14:33:47;;;;;;;2.92;1.58;;;;;;;;;;5016303;28;25100;-70
2023/08/26 14:36:13;;;;;;;4.25;1.55;;;;;;;;;;5018191;28;25069;-70
2023/08/26 14:38:43;;;;;;;1.45;1.35;;;;;;;;;;5015193;28;25061;-70